Time;durP1;ratioP1;P1;durP2;ratioP2;P2;SDS_P1;SDS_P2;PMS_P1;PMS_P2;Temp;Humidity;BMP_temperature;BMP_pressure;BME280_temperature;BME280_humidity;BME280_pressure;Samples;Min_cycle;Max_cycle;Signal;HPM_P1;HPM_P2
2024/01/09 00:02:12;;;;;;;9.10;3.73;;;-3.20;99.90;;;;;;5031522;28;20171;-56
2024/01/09 00:04:38;;;;;;;5.23;2.77;;;-3.30;99.90;;;;;;5030952;28;20541;-55
2024/01/09 00:07:03;;;;;;;6.30;4.23;;;-3.30;99.90;;;;;;5030849;28;20534;-55
2024/01/09 00:09:29;;;;;;;7.83;4.33;;;-3.30;99.90;;;;;;5030823;28;20181;-55
2024/01/09 00:11:54;;;;;;;5.97;3.13;;;-3.30;99.90;;;;;;5030925;28;20181;-54
2024/01/09 00:14:20;;;;;;;7.10;4.37;;;-3.30;99.90;;;;;;5030719;28;20205;-58
2024/01/09 00:16:45;;;;;;;9.10;4.33;;;-1.00;99.90;;;;;;5031058;28;20173;-57
2024/01/09 00:19:11;;;;;;;14.50;4.80;;;-3.30;99.90;;;;;;5030711;28;20232;-57
2024/01/09 00:21:39;;;;;;;6.60;3.80;;;-3.30;99.90;;;;;;5030763;28;20174;-58
2024/01/09 00:24:04;;;;;;;6.78;4.07;;;-3.30;99.90;;;;;;5030969;28;20213;-52
2024/01/09 00:26:30;;;;;;;6.77;4.17;;;-3.30;99.90;;;;;;5030665;28;20182;-49
2024/01/09 00:28:56;;;;;;;6.00;2.90;;;-3.30;99.90;;;;;;5030703;28;20167;-48
2024/01/09 00:31:21;;;;;;;9.97;4.87;;;-3.40;99.90;;;;;;5030733;28;20176;-46
2024/01/09 00:33:47;;;;;;;2.72;2.33;;;-3.40;99.90;;;;;;5031191;28;20194;-47
2024/01/09 00:36:12;;;;;;;7.40;4.37;;;-3.50;99.90;;;;;;5034814;28;20175;-47
2024/01/09 00:38:38;;;;;;;3.83;2.80;;;-3.50;99.90;;;;;;5034189;28;20225;-51
2024/01/09 00:41:03;;;;;;;7.43;4.03;;;-3.50;99.90;;;;;;5032994;28;20184;-46
2024/01/09 00:43:29;;;;;;;9.03;4.27;;;-3.40;99.90;;;;;;5034420;28;20185;-53
2024/01/09 00:45:55;;;;;;;5.00;3.23;;;-3.40;99.90;;;;;;5034131;28;20502;-46
2024/01/09 00:48:20;;;;;;;5.90;3.20;;;-3.50;99.90;;;;;;5032839;28;20167;-46
2024/01/09 00:50:46;;;;;;;7.47;4.33;;;-3.50;99.90;;;;;;5034501;28;20163;-46
2024/01/09 00:53:11;;;;;;;5.37;2.87;;;-3.60;99.90;;;;;;5034003;28;20507;-47
2024/01/09 00:55:37;;;;;;;5.13;3.57;;;-3.60;99.90;;;;;;5033907;28;20234;-48
2024/01/09 00:58:02;;;;;;;8.17;3.77;;;-3.60;99.90;;;;;;5033985;28;20173;-53
2024/01/09 01:00:28;;;;;;;6.33;3.43;;;-3.60;99.90;;;;;;5033869;28;20170;-47
2024/01/09 01:02:54;;;;;;;7.57;3.87;;;-3.70;99.90;;;;;;5034124;28;20661;-51
2024/01/09 01:05:20;;;;;;;8.63;5.10;;;-3.60;99.90;;;;;;5033445;28;20237;-54
2024/01/09 01:07:45;;;;;;;4.80;2.67;;;-3.60;99.90;;;;;;5034249;28;20177;-47
2024/01/09 01:10:14;;;;;;;7.60;4.40;;;-3.60;99.90;;;;;;5033730;28;20178;-46
2024/01/09 01:12:40;;;;;;;9.13;3.47;;;-3.60;99.90;;;;;;5033673;28;20259;-47
2024/01/09 01:15:06;;;;;;;9.10;4.07;;;-3.60;99.90;;;;;;5033540;28;20252;-47
2024/01/09 01:17:31;;;;;;;7.80;4.03;;;-3.60;99.90;;;;;;5033589;28;20214;-47
2024/01/09 01:19:57;;;;;;;8.63;4.43;;;-3.50;99.90;;;;;;5033557;28;20177;-46
2024/01/09 01:22:23;;;;;;;8.10;4.40;;;-3.60;99.90;;;;;;5033545;28;20216;-52
2024/01/09 01:24:48;;;;;;;8.37;4.43;;;-3.60;99.90;;;;;;5033544;28;20202;-57
2024/01/09 01:27:14;;;;;;;12.43;5.07;;;-3.60;99.90;;;;;;5033871;28;20174;-51
2024/01/09 01:29:39;;;;;;;7.17;4.10;;;-3.60;99.90;;;;;;5033401;28;20184;-57
2024/01/09 01:32:09;;;;;;;7.73;4.20;;;-3.60;99.90;;;;;;5033328;28;20176;-54
2024/01/09 01:34:35;;;;;;;8.00;4.30;;;-3.70;99.90;;;;;;5033381;28;20227;-55
2024/01/09 01:37:00;;;;;;;6.87;3.43;;;-3.60;99.90;;;;;;5033240;28;20174;-53
2024/01/09 01:39:26;;;;;;;8.57;4.50;;;-3.70;99.90;;;;;;5033193;28;20215;-47
2024/01/09 01:41:52;;;;;;;9.57;4.50;;;-3.60;99.90;;;;;;5033360;28;20618;-47
2024/01/09 01:44:18;;;;;;;9.83;4.80;;;-3.60;99.90;;;;;;5033085;28;20182;-47
2024/01/09 01:46:45;;;;;;;8.30;4.67;;;-3.50;99.90;;;;;;5032622;28;20186;-47
2024/01/09 01:49:12;;;;;;;10.47;5.53;;;-3.50;99.90;;;;;;5033054;28;20162;-47
2024/01/09 01:51:38;;;;;;;8.10;4.80;;;-3.50;99.90;;;;;;5032897;28;20176;-46
2024/01/09 01:54:04;;;;;;;9.10;4.63;;;-3.60;99.90;;;;;;5032765;28;20696;-47
2024/01/09 01:56:31;;;;;;;6.47;4.30;;;-3.60;99.90;;;;;;5032744;28;20686;-46
2024/01/09 01:58:56;;;;;;;7.10;3.87;;;-3.60;99.90;;;;;;5032773;28;20162;-54
2024/01/09 02:01:22;;;;;;;6.57;4.00;;;-3.70;99.90;;;;;;5032771;28;20224;-51
2024/01/09 02:03:48;;;;;;;6.87;4.43;;;-3.70;99.90;;;;;;5032735;28;20170;-54
2024/01/09 02:06:14;;;;;;;7.43;4.33;;;-3.70;99.90;;;;;;5033393;28;20173;-51
2024/01/09 02:08:43;;;;;;;5.93;3.63;;;-3.70;99.90;;;;;;5032574;28;20166;-55
2024/01/09 02:11:10;;;;;;;6.67;3.23;;;-3.70;99.90;;;;;;5032529;28;20178;-53
2024/01/09 02:13:35;;;;;;;5.67;2.73;;;-3.70;99.90;;;;;;5032418;28;20673;-49
2024/01/09 02:16:01;;;;;;;6.90;5.00;;;-3.80;99.90;;;;;;5031234;28;20173;-48
2024/01/09 02:18:27;;;;;;;8.90;4.77;;;-3.80;99.90;;;;;;5032383;28;20249;-46
2024/01/09 02:20:52;;;;;;;9.57;4.10;;;-3.80;99.90;;;;;;5032337;28;20178;-50
2024/01/09 02:23:18;;;;;;;7.63;3.93;;;-3.90;99.90;;;;;;5032371;28;20169;-53
2024/01/09 02:25:45;;;;;;;9.97;4.47;;;-3.80;99.90;;;;;;5032806;28;20193;-49
2024/01/09 02:28:18;;;;;;;8.70;4.90;;;-3.80;99.90;;;;;;5032199;28;20250;-56
2024/01/09 02:30:45;;;;;;;7.83;4.17;;;-3.80;99.90;;;;;;5032651;28;20170;-52
2024/01/09 02:33:11;;;;;;;4.30;2.67;;;-3.90;99.90;;;;;;5032202;28;20674;-51
2024/01/09 02:35:37;;;;;;;7.10;4.03;;;-3.90;99.90;;;;;;5032015;28;20671;-48
2024/01/09 02:38:03;;;;;;;8.47;3.50;;;-3.90;99.90;;;;;;5032301;28;20170;-49
2024/01/09 02:40:28;;;;;;;6.73;3.93;;;-3.90;99.90;;;;;;5032310;28;20180;-49
2024/01/09 02:42:54;;;;;;;4.93;3.00;;;-3.90;99.90;;;;;;5032008;28;20633;-51
2024/01/09 02:45:19;;;;;;;4.20;3.07;;;-4.00;99.90;;;;;;5031814;28;20176;-49
2024/01/09 02:47:45;;;;;;;8.13;3.57;;;-4.00;99.90;;;;;;5032616;28;20185;-46
2024/01/09 02:50:11;;;;;;;5.40;3.60;;;-4.10;99.90;;;;;;5031818;28;20175;-46
2024/01/09 02:52:36;;;;;;;8.60;4.53;;;-4.00;99.90;;;;;;5031788;28;20186;-46
2024/01/09 02:55:02;;;;;;;4.80;3.67;;;-4.00;99.90;;;;;;5031529;28;20628;-51
2024/01/09 02:57:28;;;;;;;8.37;4.40;;;-4.00;99.90;;;;;;5031597;28;20176;-47
2024/01/09 02:59:53;;;;;;;7.93;4.10;;;-4.00;99.90;;;;;;5031718;28;20169;-50
2024/01/09 03:02:19;;;;;;;6.40;4.03;;;-4.00;99.90;;;;;;5031614;28;20629;-49
2024/01/09 03:04:44;;;;;;;7.90;4.20;;;-4.00;99.90;;;;;;5032086;28;20629;-47
2024/01/09 03:07:10;;;;;;;7.53;4.67;;;-4.00;99.90;;;;;;5031638;28;20211;-46
2024/01/09 03:09:36;;;;;;;6.80;3.50;;;-4.00;99.90;;;;;;5031753;28;20171;-45
2024/01/09 03:12:03;;;;;;;6.63;3.27;;;-4.00;99.90;;;;;;5031758;28;20174;-45
2024/01/09 03:14:29;;;;;;;8.00;4.50;;;-4.00;99.90;;;;;;5031614;28;20212;-45
2024/01/09 03:16:54;;;;;;;6.40;3.93;;;-4.00;99.90;;;;;;5031487;28;20586;-45
2024/01/09 03:19:20;;;;;;;7.07;3.10;;;-4.00;99.90;;;;;;5031281;28;20176;-45
2024/01/09 03:21:45;;;;;;;6.03;3.63;;;-4.10;99.90;;;;;;5031811;28;20197;-45
2024/01/09 03:24:11;;;;;;;6.30;4.50;;;-4.00;99.90;;;;;;5031602;28;20201;-45
2024/01/09 03:26:36;;;;;;;7.70;4.10;;;-4.00;99.90;;;;;;5031228;28;20247;-45
2024/01/09 03:29:04;;;;;;;8.73;4.17;;;-4.10;99.90;;;;;;5031228;28;20642;-45
2024/01/09 03:31:30;;;;;;;7.13;4.57;;;-4.00;99.90;;;;;;5031536;28;20176;-46
2024/01/09 03:33:56;;;;;;;7.13;4.60;;;-4.00;99.90;;;;;;5031311;28;20206;-46
2024/01/09 03:36:23;;;;;;;9.53;4.90;;;-4.00;99.90;;;;;;5031191;28;20706;-45
2024/01/09 03:38:50;;;;;;;6.57;4.17;;;-4.00;99.90;;;;;;5031546;28;20173;-52
2024/01/09 03:41:16;;;;;;;10.03;4.60;;;-4.10;99.90;;;;;;5031453;28;20359;-45
2024/01/09 03:43:42;;;;;;;6.17;4.10;;;-4.10;99.90;;;;;;5031667;28;20709;-55
2024/01/09 03:46:07;;;;;;;5.43;3.20;;;-3.90;99.90;;;;;;5031142;28;20526;-55
2024/01/09 03:48:33;;;;;;;9.43;4.50;;;-4.00;99.90;;;;;;5031086;28;20169;-55
2024/01/09 03:50:58;;;;;;;9.30;4.87;;;-4.00;99.90;;;;;;5031026;28;20180;-56
2024/01/09 03:53:24;;;;;;;9.70;4.57;;;-4.10;99.90;;;;;;5031006;28;20165;-55
2024/01/09 03:55:49;;;;;;;9.03;3.83;;;-4.10;99.90;;;;;;5030788;28;20616;-54
2024/01/09 03:58:15;;;;;;;9.07;4.53;;;-4.10;99.90;;;;;;5030130;28;20509;-54
2024/01/09 04:00:41;;;;;;;6.87;3.80;;;-4.20;99.90;;;;;;5030888;28;20278;-54
2024/01/09 04:03:06;;;;;;;6.80;3.57;;;-4.10;99.90;;;;;;5030865;28;20175;-54
2024/01/09 04:05:32;;;;;;;5.57;3.33;;;-4.10;99.90;;;;;;5031149;28;20169;-55
2024/01/09 04:07:58;;;;;;;9.03;4.40;;;-4.20;99.90;;;;;;5030823;28;20161;-55
2024/01/09 04:10:24;;;;;;;9.53;4.90;;;-4.20;99.90;;;;;;5034196;28;20179;-54
2024/01/09 04:12:49;;;;;;;3.73;2.33;;;-4.20;99.90;;;;;;5034712;28;20174;-54
2024/01/09 04:15:15;;;;;;;6.47;3.93;;;-4.20;99.90;;;;;;5043348;28;20255;-48
2024/01/09 04:17:41;;;;;;;7.73;4.90;;;-4.30;99.90;;;;;;5055384;28;20175;-53
2024/01/09 04:20:09;;;;;;;10.53;4.97;;;-4.20;99.90;;;;;;5054608;28;20242;-53
2024/01/09 04:22:35;;;;;;;8.37;4.07;;;-4.30;99.90;;;;;;5054509;28;20698;-53
2024/01/09 04:25:00;;;;;;;7.57;4.33;;;-4.20;99.90;;;;;;5054748;28;20176;-47
2024/01/09 04:27:26;;;;;;;3.60;2.30;;;-4.20;99.90;;;;;;5054503;28;20165;-49
2024/01/09 04:29:51;;;;;;;10.00;4.70;;;-4.30;99.90;;;;;;5054411;28;20265;-55
2024/01/09 04:32:17;;;;;;;5.13;3.17;;;-4.20;99.90;;;;;;5054408;28;20170;-50
2024/01/09 04:34:43;;;;;;;7.77;4.20;;;-4.30;99.90;;;;;;5054777;28;20675;-47
2024/01/09 04:37:08;;;;;;;7.27;4.07;;;-4.30;99.90;;;;;;5054580;28;20519;-55
2024/01/09 04:39:34;;;;;;;6.67;4.37;;;-4.30;99.90;;;;;;5054169;28;20177;-54
2024/01/09 04:42:00;;;;;;;7.27;4.40;;;-4.30;99.90;;;;;;5054231;28;20159;-54
2024/01/09 04:44:25;;;;;;;8.53;4.50;;;-4.30;99.90;;;;;;5054273;28;20191;-51
2024/01/09 04:46:51;;;;;;;7.23;4.00;;;-4.40;99.90;;;;;;5053848;28;20175;-54
2024/01/09 04:49:16;;;;;;;6.50;3.73;;;-4.30;99.90;;;;;;5054043;28;20171;-50
2024/01/09 04:51:42;;;;;;;6.83;4.13;;;-4.40;99.90;;;;;;5054516;28;20205;-55
2024/01/09 04:54:07;;;;;;;6.07;3.90;;;-4.40;99.90;;;;;;5053945;28;20256;-54
2024/01/09 04:56:33;;;;;;;3.67;2.63;;;-4.40;99.90;;;;;;5053743;28;20215;-54
2024/01/09 04:58:58;;;;;;;7.23;4.27;;;-4.40;99.90;;;;;;5053956;28;20563;-46
2024/01/09 05:01:24;;;;;;;8.07;4.10;;;-4.30;99.90;;;;;;5053833;28;20570;-51
2024/01/09 05:03:50;;;;;;;4.53;2.33;;;-4.30;99.90;;;;;;5053802;28;20282;-55
2024/01/09 05:06:19;;;;;;;9.87;4.10;;;-4.40;99.90;;;;;;5054183;28;20170;-54
2024/01/09 05:08:46;;;;;;;12.00;4.37;;;-4.40;99.90;;;;;;5054164;28;20192;-51
2024/01/09 05:11:11;;;;;;;8.60;4.40;;;-4.30;99.90;;;;;;5054160;28;20244;-52
2024/01/09 05:13:37;;;;;;;6.90;2.93;;;-4.40;99.90;;;;;;5053830;28;20211;-52
2024/01/09 05:16:04;;;;;;;7.00;3.70;;;-4.40;99.90;;;;;;5053483;28;20522;-52
2024/01/09 05:18:30;;;;;;;7.40;3.80;;;-4.50;99.90;;;;;;5053780;28;20178;-54
2024/01/09 05:20:55;;;;;;;9.20;4.03;;;-4.50;99.90;;;;;;5053282;28;20177;-56
2024/01/09 05:23:21;;;;;;;8.90;3.83;;;-4.50;99.90;;;;;;5053444;28;20166;-52
2024/01/09 05:25:47;;;;;;;7.10;4.20;;;-4.60;99.90;;;;;;5053381;28;20222;-54
2024/01/09 05:28:12;;;;;;;8.30;3.80;;;-4.50;99.90;;;;;;5053746;28;20170;-56
2024/01/09 05:30:38;;;;;;;6.70;3.17;;;-4.50;99.90;;;;;;5053237;28;20172;-54
2024/01/09 05:33:04;;;;;;;8.13;4.50;;;-4.50;99.90;;;;;;5053178;28;20182;-55
2024/01/09 05:35:30;;;;;;;6.53;3.53;;;-4.40;99.90;;;;;;5053061;28;20667;-54
2024/01/09 05:37:55;;;;;;;7.33;4.30;;;-4.40;99.90;;;;;;5053055;28;20166;-54
2024/01/09 05:40:21;;;;;;;10.37;4.60;;;-4.50;99.90;;;;;;5053110;28;20626;-56
2024/01/09 05:42:47;;;;;;;9.17;4.73;;;-4.40;99.90;;;;;;5053019;28;20655;-54
2024/01/09 05:45:13;;;;;;;7.33;4.27;;;-4.40;99.90;;;;;;5053254;28;20575;-55
2024/01/09 05:47:39;;;;;;;10.57;4.83;;;-4.40;99.90;;;;;;5052730;28;20182;-51
2024/01/09 05:50:06;;;;;;;9.97;5.13;;;-4.40;99.90;;;;;;5052801;28;20178;-47
2024/01/09 05:52:35;;;;;;;10.17;4.57;;;-4.40;99.90;;;;;;5053017;28;20184;-50
2024/01/09 05:55:05;;;;;;;8.03;3.83;;;-4.50;99.90;;;;;;5052540;28;20204;-56
2024/01/09 05:57:30;;;;;;;8.07;3.97;;;-4.40;99.90;;;;;;5051537;28;20546;-48
2024/01/09 05:59:57;;;;;;;13.37;4.70;;;-4.40;99.90;;;;;;5052702;28;20182;-58
2024/01/09 06:02:22;;;;;;;8.00;4.17;;;-4.40;99.90;;;;;;5052655;28;20644;-57
2024/01/09 06:04:48;;;;;;;6.57;3.37;;;-4.40;99.90;;;;;;5052870;28;20206;-58
2024/01/09 06:07:15;;;;;;;7.27;4.20;;;-4.40;99.90;;;;;;5052957;28;20248;-56
2024/01/09 06:09:41;;;;;;;7.50;4.33;;;-4.50;99.90;;;;;;5049874;28;20187;-57
2024/01/09 06:12:06;;;;;;;6.10;3.50;;;-4.50;99.90;;;;;;5050720;28;20186;-52
2024/01/09 06:14:32;;;;;;;8.23;4.37;;;-4.50;99.90;;;;;;5049486;28;20211;-54
2024/01/09 06:16:58;;;;;;;6.80;4.27;;;-4.50;99.90;;;;;;5050476;28;20175;-54
2024/01/09 06:19:23;;;;;;;6.17;3.37;;;-4.60;99.90;;;;;;5050447;28;20187;-56
2024/01/09 06:21:49;;;;;;;8.73;5.27;;;-4.60;99.90;;;;;;5050492;28;20242;-55
2024/01/09 06:24:14;;;;;;;7.17;3.93;;;-4.50;99.90;;;;;;5050962;28;20177;-55
2024/01/09 06:26:40;;;;;;;8.50;4.53;;;-4.50;99.90;;;;;;5050484;28;20184;-47
2024/01/09 06:29:05;;;;;;;7.87;4.07;;;-4.60;99.90;;;;;;5050678;28;20202;-50
2024/01/09 06:31:32;;;;;;;2.30;2.10;;;-4.60;99.90;;;;;;5049865;28;20176;-50
2024/01/09 06:33:57;;;;;;;8.57;4.37;;;-4.60;99.90;;;;;;5050226;28;20735;-56
2024/01/09 06:36:23;;;;;;;5.60;3.07;;;-4.60;99.90;;;;;;5050265;28;20279;-52
2024/01/09 06:38:48;;;;;;;8.50;4.53;;;-4.60;99.90;;;;;;5050383;28;20187;-49
2024/01/09 06:41:14;;;;;;;8.53;4.37;;;-4.60;99.90;;;;;;5050614;28;20192;-51
2024/01/09 06:43:40;;;;;;;7.93;4.73;;;-4.60;99.90;;;;;;5050042;28;20185;-50
2024/01/09 06:46:06;;;;;;;9.93;5.20;;;-4.50;99.90;;;;;;5049967;28;20190;-51
2024/01/09 06:48:32;;;;;;;8.93;5.20;;;-4.50;99.90;;;;;;5049782;28;20179;-53
2024/01/09 06:50:57;;;;;;;6.60;4.33;;;-4.50;99.90;;;;;;5049819;28;20178;-47
2024/01/09 06:53:23;;;;;;;14.00;4.70;;;-4.60;99.90;;;;;;5049979;28;20163;-49
2024/01/09 06:55:48;;;;;;;9.33;4.33;;;-4.60;99.90;;;;;;5049180;28;20245;-47
2024/01/09 06:58:16;;;;;;;11.17;4.67;;;-4.60;99.90;;;;;;5049731;28;20224;-48
2024/01/09 07:00:41;;;;;;;11.70;4.40;;;-4.60;99.90;;;;;;5049318;28;20183;-47
2024/01/09 07:03:07;;;;;;;6.13;4.03;;;-4.60;99.90;;;;;;5049283;28;20170;-50
2024/01/09 07:05:33;;;;;;;5.57;2.63;;;-4.60;99.90;;;;;;5049615;28;20175;-56
2024/01/09 07:07:58;;;;;;;7.00;3.97;;;-4.70;99.90;;;;;;5049317;28;20251;-51
2024/01/09 07:10:24;;;;;;;7.60;3.03;;;-4.70;99.90;;;;;;5048975;28;20179;-57
2024/01/09 07:12:49;;;;;;;6.67;4.07;;;-4.70;99.90;;;;;;5048956;28;20181;-55
2024/01/09 07:15:15;;;;;;;4.20;3.20;;;-4.70;99.90;;;;;;5049260;28;20757;-55
2024/01/09 07:17:41;;;;;;;6.13;3.47;;;-4.80;99.90;;;;;;5048788;28;20588;-55
2024/01/09 07:20:07;;;;;;;6.60;3.83;;;-4.80;99.90;;;;;;5049055;28;20173;-54
2024/01/09 07:22:33;;;;;;;6.40;2.87;;;-4.70;99.90;;;;;;5049292;28;20205;-54
2024/01/09 07:24:58;;;;;;;6.20;3.70;;;-4.80;99.90;;;;;;5048611;28;20176;-53
2024/01/09 07:27:24;;;;;;;5.47;2.80;;;-4.80;99.90;;;;;;5048479;28;20171;-49
2024/01/09 07:29:49;;;;;;;6.53;3.27;;;-4.80;99.90;;;;;;5049077;28;20167;-55
2024/01/09 07:32:16;;;;;;;6.87;3.77;;;-4.70;99.90;;;;;;5049290;28;20577;-53
2024/01/09 07:34:42;;;;;;;5.10;3.13;;;-4.80;99.90;;;;;;5049106;28;20713;-51
2024/01/09 07:37:08;;;;;;;4.30;1.93;;;-4.70;99.90;;;;;;5049208;28;20170;-54
2024/01/09 07:39:34;;;;;;;9.03;3.97;;;-4.80;99.90;;;;;;5048893;28;20266;-53
2024/01/09 07:41:59;;;;;;;6.10;3.13;;;-4.80;99.90;;;;;;5048416;28;20195;-48
2024/01/09 07:44:25;;;;;;;10.40;5.18;;;-4.80;99.90;;;;;;5046670;28;20550;-53
2024/01/09 07:46:50;;;;;;;5.97;3.20;;;-4.80;99.90;;;;;;5048674;28;20202;-51
2024/01/09 07:49:16;;;;;;;5.73;3.70;;;-4.80;99.90;;;;;;5048742;28;20175;-47
2024/01/09 07:51:41;;;;;;;6.47;3.60;;;-4.80;99.90;;;;;;5049085;28;20179;-52
2024/01/09 07:54:07;;;;;;;7.90;4.77;;;-4.70;99.90;;;;;;5048109;28;20662;-55
2024/01/09 07:56:32;;;;;;;7.77;3.70;;;-4.80;99.90;;;;;;5012119;28;1055674;-55
2024/01/09 07:58:58;;;;;;;8.43;4.70;;;-4.70;99.90;;;;;;5048194;28;20281;-53
2024/01/09 08:01:24;;;;;;;7.47;4.10;;;-4.60;99.90;;;;;;5049142;28;20184;-53
2024/01/09 08:03:50;;;;;;;7.43;4.30;;;-4.60;99.90;;;;;;5049567;28;20167;-56
2024/01/09 08:06:16;;;;;;;10.27;4.10;;;-4.60;99.90;;;;;;5049889;28;20174;-53
2024/01/09 08:08:42;;;;;;;8.57;4.80;;;-4.60;99.90;;;;;;5050104;28;20183;-55
2024/01/09 08:11:09;;;;;;;7.03;4.23;;;-4.50;99.90;;;;;;5048954;28;20228;-51
2024/01/09 08:13:35;;;;;;;11.47;5.10;;;-4.50;99.90;;;;;;5049664;28;20205;-55
2024/01/09 08:16:01;;;;;;;6.67;3.00;;;-4.50;99.90;;;;;;5049153;28;20212;-52
2024/01/09 08:18:27;;;;;;;8.67;4.47;;;-4.50;99.90;;;;;;5049209;28;20165;-53
2024/01/09 08:20:52;;;;;;;10.13;5.37;;;-4.50;99.90;;;;;;5049060;28;20169;-49
2024/01/09 08:23:18;;;;;;;6.53;3.77;;;-4.40;99.90;;;;;;5048747;28;20230;-48
2024/01/09 08:25:44;;;;;;;10.27;3.40;;;-4.40;99.90;;;;;;5049612;28;20204;-48
2024/01/09 08:28:09;;;;;;;9.70;3.70;;;-4.40;99.90;;;;;;5049598;28;20172;-48
2024/01/09 08:30:35;;;;;;;8.30;4.60;;;-4.50;99.90;;;;;;5049164;28;20175;-48
2024/01/09 08:33:01;;;;;;;12.73;4.87;;;-4.30;99.90;;;;;;5048054;28;20175;-48
2024/01/09 08:35:27;;;;;;;7.67;4.03;;;-4.20;99.90;;;;;;5049230;28;20214;-49
2024/01/09 08:37:52;;;;;;;6.47;4.00;;;-4.20;99.90;;;;;;5049109;28;20533;-47
2024/01/09 08:40:18;;;;;;;5.37;3.53;;;-4.20;99.90;;;;;;5049320;28;20179;-48
2024/01/09 08:42:43;;;;;;;7.67;4.70;;;-4.10;99.90;;;;;;5049498;28;20168;-48
2024/01/09 08:45:09;;;;;;;6.77;4.03;;;-4.00;99.90;;;;;;5048955;28;20677;-47
2024/01/09 08:47:35;;;;;;;7.37;4.00;;;-4.00;99.90;;;;;;5048987;28;20174;-47
2024/01/09 08:50:02;;;;;;;6.43;4.10;;;-3.90;99.90;;;;;;5049057;28;20592;-49
2024/01/09 08:52:27;;;;;;;11.23;5.03;;;-3.80;99.90;;;;;;5049182;28;20218;-48
2024/01/09 08:54:54;;;;;;;5.80;3.33;;;-3.70;99.90;;;;;;5049465;28;20209;-47
2024/01/09 08:57:22;;;;;;;6.17;3.90;;;-3.80;99.90;;;;;;5052390;28;20651;-48
2024/01/09 08:59:48;;;;;;;6.33;4.00;;;-3.80;99.90;;;;;;5052425;28;20170;-47
2024/01/09 09:02:14;;;;;;;6.13;3.27;;;-3.70;99.90;;;;;;5052797;28;20169;-47
2024/01/09 09:04:39;;;;;;;4.67;2.53;;;-3.80;99.90;;;;;;5052443;28;20174;-48
2024/01/09 09:07:05;;;;;;;6.80;3.93;;;-3.70;99.90;;;;;;5052039;28;20173;-47
2024/01/09 09:09:34;;;;;;;9.93;2.80;;;-3.60;99.90;;;;;;5052463;28;20174;-48
2024/01/09 09:12:00;;;;;;;9.27;4.80;;;-3.50;99.90;;;;;;5051853;28;20620;-48
2024/01/09 09:14:26;;;;;;;5.50;2.83;;;-3.40;99.90;;;;;;5051701;28;20203;-48
2024/01/09 09:16:51;;;;;;;7.50;4.43;;;-3.40;99.90;;;;;;5051669;28;20208;-46
2024/01/09 09:19:17;;;;;;;8.00;4.40;;;-3.30;99.90;;;;;;5052038;28;20181;-48
2024/01/09 09:21:43;;;;;;;8.80;4.67;;;-3.30;99.90;;;;;;5052690;28;20180;-48
2024/01/09 09:24:09;;;;;;;6.63;3.78;;;-3.20;99.90;;;;;;5051665;28;20174;-48
2024/01/09 09:26:35;;;;;;;10.27;3.60;;;-3.30;99.90;;;;;;5051694;28;20257;-52
2024/01/09 09:29:01;;;;;;;16.10;4.37;;;-3.20;99.90;;;;;;5051779;28;20535;-48
2024/01/09 09:31:27;;;;;;;8.48;5.05;;;-3.00;99.90;;;;;;5051608;28;20170;-48
2024/01/09 09:33:55;;;;;;;7.07;4.60;;;-3.00;99.90;;;;;;5051654;28;20174;-48
2024/01/09 09:36:20;;;;;;;8.13;4.27;;;-2.80;99.90;;;;;;5051445;28;20535;-48
2024/01/09 09:38:46;;;;;;;8.05;4.35;;;-2.80;99.90;;;;;;5052186;28;20170;-48
2024/01/09 09:41:15;;;;;;;6.20;3.63;;;-2.80;99.90;;;;;;5052143;28;20586;-48
2024/01/09 09:43:57;;;;;;;8.17;4.53;;;-2.90;99.90;;;;;;5052187;28;20189;-48
2024/01/09 09:46:29;;;;;;;8.83;4.57;;;-2.80;99.90;;;;;;5049868;28;20169;-47
2024/01/09 09:48:55;;;;;;;4.53;4.10;;;-2.70;99.90;;;;;;5051367;28;20186;-48
2024/01/09 09:51:22;;;;;;;9.13;4.27;;;-2.60;99.90;;;;;;5051293;28;20174;-49
2024/01/09 09:53:48;;;;;;;9.80;5.43;;;-2.50;99.90;;;;;;5051437;28;20198;-48
2024/01/09 09:56:14;;;;;;;7.83;4.27;;;-2.50;99.90;;;;;;5051728;28;20244;-52
2024/01/09 09:58:40;;;;;;;9.18;4.05;;;-2.30;99.90;;;;;;5050916;28;20163;-47
2024/01/09 10:01:10;;;;;;;3.70;2.63;;;-2.20;99.90;;;;;;5050734;28;20174;-49
2024/01/09 10:03:37;;;;;;;8.50;3.75;;;-2.50;99.90;;;;;;5051139;28;20205;-47
2024/01/09 10:06:05;;;;;;;5.18;3.05;;;-2.30;99.90;;;;;;5050602;28;20171;-50
2024/01/09 10:08:33;;;;;;;7.15;4.22;;;-2.30;99.90;;;;;;5050639;28;20277;-53
2024/01/09 10:10:59;;;;;;;6.38;3.45;;;-2.30;99.90;;;;;;5050887;28;20179;-50
2024/01/09 10:13:24;;;;;;;4.15;2.65;;;-2.20;99.90;;;;;;5050994;28;20174;-53
2024/01/09 10:16:01;;;;;;;7.78;4.15;;;-2.20;99.90;;;;;;5051203;28;20213;-52
2024/01/09 10:18:31;;;;;;;4.88;2.30;;;-2.10;99.90;;;;;;5050571;28;20166;-53
2024/01/09 10:20:59;;;;;;;5.18;2.38;;;-2.20;99.90;;;;;;5051468;28;20173;-53
2024/01/09 10:23:29;;;;;;;6.45;3.72;;;-2.10;99.90;;;;;;5051234;28;20171;-51
2024/01/09 10:25:55;;;;;;;6.57;3.83;;;-1.90;99.90;;;;;;5049724;28;20536;-53
2024/01/09 10:28:21;;;;;;;8.77;3.70;;;-1.80;99.90;;;;;;5049598;28;20261;-56
2024/01/09 10:30:49;;;;;;;5.63;3.78;;;-1.60;99.90;;;;;;5050689;28;20518;-52
2024/01/09 10:33:15;;;;;;;2.53;2.33;;;-1.70;99.90;;;;;;5051136;28;20641;-51
2024/01/09 10:35:41;;;;;;;8.65;4.07;;;-1.80;99.90;;;;;;5050592;28;20214;-49
2024/01/09 10:38:09;;;;;;;6.72;3.92;;;-1.60;99.90;;;;;;5050950;28;20257;-52
2024/01/09 10:40:35;;;;;;;4.60;2.70;;;-1.70;99.90;;;;;;5050904;28;20179;-52
2024/01/09 10:43:01;;;;;;;8.02;3.75;;;-1.60;99.90;;;;;;5050494;28;20618;-50
2024/01/09 10:45:27;;;;;;;6.10;3.80;;;-1.30;99.90;;;;;;5050459;28;20181;-53
2024/01/09 10:47:53;;;;;;;5.57;3.53;;;-1.30;99.90;;;;;;5050675;28;20206;-47
2024/01/09 10:50:23;;;;;;;9.18;4.28;;;-1.20;99.90;;;;;;5050408;28;20178;-56
2024/01/09 10:52:50;;;;;;;5.03;3.67;;;-1.20;99.90;;;;;;5049142;28;20185;-56
2024/01/09 10:55:18;;;;;;;7.50;3.88;;;-1.20;99.90;;;;;;5050632;28;20222;-53
2024/01/09 10:57:45;;;;;;;7.45;3.72;;;-1.10;99.90;;;;;;5050502;28;20273;-54
2024/01/09 11:00:12;;;;;;;6.32;4.13;;;-1.10;99.90;;;;;;5050143;28;20174;-56
2024/01/09 11:02:38;;;;;;;8.02;2.88;;;-1.00;99.90;;;;;;5050102;28;20646;-52
2024/01/09 11:05:05;;;;;;;6.55;3.00;;;-1.10;99.90;;;;;;5050180;28;20179;-49
2024/01/09 11:07:32;;;;;;;5.38;3.45;;;-1.00;99.90;;;;;;5050167;28;20250;-49
2024/01/09 11:10:00;;;;;;;5.60;3.33;;;-1.00;99.90;;;;;;5049685;28;20641;-55
2024/01/09 11:12:38;;;;;;;6.90;4.45;;;-0.90;99.90;;;;;;5049744;28;20170;-57
2024/01/09 11:15:10;;;;;;;5.78;3.60;;;-0.80;99.90;;;;;;5049343;28;20214;-48
2024/01/09 11:17:38;;;;;;;9.35;4.05;;;-0.70;99.90;;;;;;5049385;28;20221;-53
2024/01/09 11:20:06;;;;;;;6.88;4.32;;;-0.70;99.90;;;;;;5048821;28;20167;-56
2024/01/09 11:22:36;;;;;;;6.38;3.30;;;-0.60;99.90;;;;;;5049735;28;20623;-50
2024/01/09 11:25:07;;;;;;;8.88;3.90;;;-0.90;99.90;;;;;;5049462;28;20167;-53
2024/01/09 11:27:42;;;;;;;10.52;4.05;;;-0.90;99.90;;;;;;5049445;28;20159;-47
2024/01/09 11:30:14;;;;;;;9.23;3.83;;;-0.60;99.90;;;;;;5049602;28;20181;-52
2024/01/09 11:32:40;;;;;;;8.48;4.70;;;-0.60;99.90;;;;;;5049405;28;20205;-56
2024/01/09 11:35:12;;;;;;;8.65;3.78;;;-0.70;99.90;;;;;;5049504;28;20248;-52
2024/01/09 11:37:40;;;;;;;4.70;3.33;;;-0.60;99.90;;;;;;5049234;28;20165;-55
2024/01/09 11:40:08;;;;;;;10.30;4.28;;;-0.60;99.70;;;;;;5049432;28;20606;-57
2024/01/09 11:42:37;;;;;;;7.75;4.25;;;-0.60;99.90;;;;;;5049458;28;20242;-56
2024/01/09 11:45:09;;;;;;;5.03;3.10;;;-0.60;99.90;;;;;;5049296;28;20174;-56
2024/01/09 11:47:37;;;;;;;4.18;2.55;;;-0.70;99.10;;;;;;5048626;28;20225;-56
2024/01/09 11:50:08;;;;;;;7.55;3.58;;;-0.60;98.20;;;;;;5049404;28;20175;-57
2024/01/09 11:52:35;;;;;;;4.78;2.88;;;-0.60;98.10;;;;;;5049154;28;20220;-54
2024/01/09 11:55:02;;;;;;;4.93;3.00;;;-0.60;99.40;;;;;;5048880;28;20739;-52
2024/01/09 11:57:28;;;;;;;3.38;2.63;;;-0.70;98.40;;;;;;5049018;28;20162;-54
2024/01/09 11:59:54;;;;;;;4.25;3.25;;;-0.80;98.20;;;;;;5049158;28;20181;-56
2024/01/09 12:02:20;;;;;;;5.45;3.47;;;-0.60;99.40;;;;;;5049029;28;20166;-50
2024/01/09 12:04:46;;;;;;;7.13;3.95;;;-0.60;97.30;;;;;;5049815;28;20697;-51
2024/01/09 12:07:12;;;;;;;9.15;4.00;;;-0.60;97.10;;;;;;5049465;28;20524;-50
2024/01/09 12:09:38;;;;;;;4.97;3.92;;;-0.50;98.30;;;;;;5048870;28;20166;-47
2024/01/09 12:12:17;;;;;;;5.50;3.22;;;-0.40;98.50;;;;;;5048995;28;20270;-47
2024/01/09 12:14:53;;;;;;;5.38;3.55;;;-0.40;98.10;;;;;;5049453;28;20210;-47
2024/01/09 12:17:24;;;;;;;4.70;3.47;;;-0.40;97.80;;;;;;5048822;28;20614;-49
2024/01/09 12:19:53;;;;;;;8.30;4.65;;;-0.40;97.50;;;;;;5048952;28;20170;-52
2024/01/09 12:22:22;;;;;;;8.80;4.25;;;-0.30;99.00;;;;;;5048797;28;20163;-51
2024/01/09 12:24:52;;;;;;;10.73;4.53;;;-0.40;98.00;;;;;;5048904;28;20167;-50
2024/01/09 12:27:20;;;;;;;9.10;4.53;;;-0.30;98.10;;;;;;5048769;28;20163;-50
2024/01/09 12:29:45;;;;;;;5.25;2.65;;;-0.20;98.70;;;;;;5050226;28;20212;-47
2024/01/09 12:32:11;;;;;;;3.83;2.35;;;-0.30;97.00;;;;;;5052744;28;20262;-49
2024/01/09 12:34:38;;;;;;;7.88;3.80;;;-0.50;95.70;;;;;;5052727;28;20206;-48
2024/01/09 12:37:08;;;;;;;6.95;4.10;;;-0.40;96.80;;;;;;5052776;28;20273;-55
2024/01/09 12:39:36;;;;;;;5.50;2.95;;;-0.30;97.30;;;;;;5052564;28;20653;-55
2024/01/09 12:42:13;;;;;;;7.80;4.10;;;-0.50;95.80;;;;;;5052572;28;20625;-56